Terminal Aerodrome Forecast
Issued by NWS Wilmington, NC

Current Version | Previous Version | Graphics & Text | Print | Product List | Glossary Off
Versions: 1 2 3 4 5 6 7 8 9 10 11 12 13 14 15 16 17 18 19 20 21 22 23

000
FTUS42 KILM 262327
TAFFLO
TAF
KFLO 262327Z 2700/2724 04009KT P6SM VCSH OVC018
     FM270100 04008KT P6SM BKN020 BKN060 OVC120
     FM270400 03005KT P6SM SCT025 BKN070 BKN120
     FM270800 35004KT P6SM SCT080 BKN250
     FM271400 33008KT P6SM FEW050 SCT250=

USA.gov is the U.S. government's official web portal to all federal, state and local government web resources and services.